Wolfe, West Virginia
Current Conditions -  °F | °C
As of 5:52 AM on Monday 22 Dec 2014 (Local Time) from KBLF Reporting Station
Overcast Overcast  
Wind Chill:   Ceiling: 600
Heat Index:   Visibility: 10mi
Dew Point:   Wind: 3mph
Humidity: 82%   Direction: NA
Pressure: 30.06"   Gusts: NA
Location:  37.31°N, 81.33°W
Report Text: KBLF 221052Z AUTO VRB03KT 10SM BKN006 OVC042 03/00 A3006 RMK AO2 CIG 005V010 SLP185 T00280000
Loading
Personal Weather Stations






























Interactive Weather Map New forecast layout! Learn more

10-Day Weather Forecast

Advertisements
Track Severe Weather on mobile